Nearby METAR Reports


Data Updates Approximately Every Four Hours

METAR is the international standard code format for hourly surface weather observations which is analogous to the SA coding currently used in the US. The acronym roughly translates from French as Aviation Routine Weather Report. SPECI is merely the code name given to METAR formatted products which are issued on a special non-routine basis as dictated by changing meteorological conditions. The SPECI acronym roughly translates as Aviation Selected Special Weather Report.

KSLH - Cheboygan, Michigan, USA
Distance from station: W 9mi, 14km
Updated: 07/08/2020 4:35am
Clear
Clear
 Wind from calm
Wind: Calm
Temperature: 61°F , 16°C
Dew Point: 59°F , 15°C
Humidity: 94%
Barometer: 29.94 inHg , 1013.9 hPa
Clouds: Clear
Visibility: 10 miles , 16 km
2020/07/08 08:35 KSLH 080835Z AUTO 00000KT 10SM CLR 16/15 A2994 RMK AO2 T01580152
KMCD - Mackinac Island, Michigan, USA
Distance from station: NW 19mi, 31km
Updated: 07/08/2020 4:35am
Fog, Overcast
Fog, Overcast
 Wind from S
Wind: S 3 mph , 6 km/h
Temperature: 66°F , 19°C
Dew Point: 66°F , 19°C
Humidity: 100%
Barometer: 29.95 inHg , 1014.2 hPa
Summary: Fog
Clouds: Overcast
Visibility: less than 1/4 mile , 0.4 km
Cloud details: Overcast 300 ft
2020/07/08 08:35 KMCD 080835Z AUTO 19003KT M1/4SM FG OVC003 19/19 A2995 RMK AO2 T01860186
 
KPLN - Pellston, Michigan, USA
Distance from station: WSW 24mi, 38km
Updated: 07/08/2020 3:54am
Mist, Partly cloudy
Mist, Partly cloudy
 Wind from calm
Wind: Calm
Temperature: 61°F , 16°C
Dew Point: 59°F , 15°C
Humidity: 94%
Barometer: 29.96 inHg , 1014.6 hPa
Summary: Mist
Clouds: Partly cloudy
Visibility: 3 miles , 5 km
Cloud details: Partly cloudy 200 ft
2020/07/08 07:54 KPLN 080754Z AUTO 00000KT 3SM BR SCT002 16/15 A2996 RMK AO2 SLP141 T01610150
KPZQ - Rogers City, Michigan, USA
Distance from station: SE 31mi, 50km
Updated: 07/08/2020 4:36am
Clear
Clear
 Wind from calm
Wind: Calm
Temperature: 61°F , 16°C
Dew Point: 57°F , 14°C
Humidity: 88%
Barometer: 29.96 inHg , 1014.6 hPa
Clouds: Clear
Visibility: 10 miles , 16 km
2020/07/08 08:36 KPZQ 080836Z AUTO 00000KT 10SM CLR 16/14 A2996 RMK AO2 T01560139
 
KMGN - Harbor Springs, Michigan, USA
Distance from station: WSW 32mi, 52km
Updated: 07/08/2020 4:36am
Fog, Overcast
Fog, Overcast
 Wind from calm
Wind: Calm
Temperature: 64°F , 18°C
Dew Point: 64°F , 18°C
Humidity: 100%
Barometer: 29.96 inHg , 1014.6 hPa
Summary: Fog
Clouds: Overcast
Visibility: 1/2 mile , 0.8 km
Cloud details: Overcast 200 ft
2020/07/08 08:36 KMGN 080836Z AUTO 00000KT 1/2SM FG OVC002 18/18 A2996 RMK AO2 T01850185
KDRM - Drummond Is, Michigan, USA
Distance from station: NE 36mi, 59km
Updated: 07/08/2020 4:35am
Fog, Overcast
Fog, Overcast
 Wind from calm
Wind: Calm
Temperature: 61°F , 16°C
Dew Point: 61°F , 16°C
Humidity: 100%
Barometer: 29.94 inHg , 1013.9 hPa
Summary: Fog
Clouds: Overcast
Visibility: 1/2 mile , 0.8 km
Cloud details: Overcast 500 ft
2020/07/08 08:35 KDRM 080835Z AUTO 00000KT 1/2SM FG VV005 16/16 A2994 RMK AO2 T01640161
 
KCIU - Chippewa Intl, Michigan, USA
Distance from station: N 41mi, 66km
Updated: 07/08/2020 3:56am
Clear
Clear
 Wind from W
Wind: W 3 mph , 6 km/h
Temperature: 61°F , 16°C
Dew Point: 61°F , 16°C
Humidity: 100%
Barometer: 29.95 inHg , 1014.2 hPa
Clouds: Clear
Visibility: 10 miles , 16 km
2020/07/08 07:56 KCIU 080756Z AUTO 27003KT 10SM CLR 16/16 A2995 RMK AO2 SLP141 T01610156 PNO $
KGLR - Gaylord, Michigan, USA
Distance from station: SSW 48mi, 77km
Updated: 07/08/2020 3:53am
Clear
Clear
 Wind from calm
Wind: Calm
Temperature: 63°F , 17°C
Dew Point: 63°F , 17°C
Humidity: 100%
Barometer: 29.98 inHg , 1015.2 hPa
Clouds: Clear
Visibility: 10 miles , 16 km
2020/07/08 07:53 KGLR 080753Z AUTO 00000KT 10SM CLR 17/17 A2998 RMK AO2 SLP147 T01720167
 
KCVX - Charlevoix, Michigan, USA
Distance from station: WSW 52mi, 83km
Updated: 07/08/2020 4:36am
Clear
Clear
 Wind from calm
Wind: Calm
Temperature: 64°F , 18°C
Dew Point: 64°F , 18°C
Humidity: 100%
Barometer: 29.95 inHg , 1014.2 hPa
Clouds: Clear
Visibility: 10 miles , 16 km
2020/07/08 08:36 KCVX 080836Z AUTO 00000KT 10SM CLR 18/18 A2995 RMK AO2 T01840180
KANJ - Sault Ste Marie, Michigan, USA
Distance from station: N 56mi, 89km
Updated: 07/08/2020 3:55am
Fog, Overcast
Fog, Overcast
 Wind from calm
Wind: Calm
Temperature: 61°F , 16°C
Dew Point: 59°F , 15°C
Humidity: 94%
Barometer: 29.94 inHg , 1013.9 hPa
Summary: Fog
Clouds: Overcast
Visibility: 1/4 mile , 0.4 km
Cloud details: Overcast 100 ft
2020/07/08 07:55 KANJ 080755Z AUTO 00000KT 1/4SM FG VV001 16/15 A2994 RMK AO2 SLP135 T01560150
 
KAPN - Alpena, Michigan, USA
Distance from station: SE 56mi, 89km
Updated: 07/08/2020 3:54am
Clear
Clear
 Wind from W
Wind: W 3 mph , 6 km/h
Temperature: 64°F , 18°C
Dew Point: 64°F , 18°C
Humidity: 100%
Barometer: 29.95 inHg , 1014.2 hPa
Clouds: Clear
Visibility: 10 miles , 16 km
2020/07/08 07:54 KAPN 080754Z AUTO 28003KT 10SM CLR 18/18 A2995 RMK AO2 SLP140 T01830178
CYAM - Sault Ste Marie, Ontario, Canada
Distance from station: N 56mi, 90km
Updated: 07/08/2020 4:00am
Fog, Overcast
Fog, Overcast
 Wind from WNW
Wind: WNW 2 mph , 4 km/h
Temperature: 59°F , 15°C
Dew Point: 59°F , 15°C
Humidity: 100%
Barometer: 29.94 inHg , 1013.9 hPa
Summary: Fog
Clouds: Overcast
Visibility: 1/4 mile , 0.4 km
Cloud details: Overcast 100 ft
2020/07/08 08:00 CYAM 080800Z 30002KT 1/4SM R12/2400FT/N FG VV001 15/15 A2994 RMK FG8 VIS VRB 1/8 - 3/8 SLP141 DENSITY ALT 800FT
 
KSJX - Beaver Island, Michigan, USA
Distance from station: W 60mi, 96km
Updated: 07/08/2020 4:35am
Clear
Clear
 Wind from calm
Wind: Calm
Temperature: 61°F , 16°C
Dew Point: 61°F , 16°C
Humidity: 100%
Barometer: 29.95 inHg , 1014.2 hPa
Clouds: Clear
Visibility: 10 miles , 16 km
2020/07/08 08:35 KSJX 080835Z AUTO 00000KT 10SM CLR 16/16 A2995 RMK AO2 T01600160
KACB - Bellaire, Michigan, USA
Distance from station: SW 63mi, 102km
Updated: 07/08/2020 4:35am
Mist, Overcast
Mist, Overcast
 Wind from calm
Wind: Calm
Temperature: 61°F , 16°C
Dew Point: 59°F , 15°C
Humidity: 94%
Barometer: 29.96 inHg , 1014.6 hPa
Summary: Mist
Clouds: Overcast
Visibility: 1 1/2 miles , 2.4 km
Cloud details: Overcast 700 ft
2020/07/08 08:35 KACB 080835Z AUTO 00000KT 1 1/2SM BR VV007 16/15 A2996 RMK AO2 VIS 3/4V3 T01600151
 
CWNL - Great Duck Island, Ontario, Canada
Distance from station: E 66mi, 106km
Updated: 07/08/2020 4:00am

 Wind from NNW
Wind: NNW 3 mph , 6 km/h
Temperature: 66°F , 19°C
Dew Point: 61°F , 16°C
Humidity: 83%
2020/07/08 08:00 CWNL 080800Z AUTO 33003KT 19/16 RMK AO1 SLP132 T01920163 50002
KERY - Newberry, Michigan, USA
Distance from station: NW 69mi, 112km
Updated: 07/08/2020 4:35am
Partly cloudy
Partly cloudy
 Wind from calm
Wind: Calm
Temperature: 61°F , 16°C
Dew Point: 59°F , 15°C
Humidity: 94%
Barometer: 29.95 inHg , 1014.2 hPa
Clouds: Partly cloudy
Visibility: 7 miles , 11 km
Cloud details: Partly cloudy 4400 ft
2020/07/08 08:35 KERY 080835Z AUTO 00000KT 7SM SCT044 16/15 A2995 RMK AO2 T01590145
 
KGOV - Grayling Af, Michigan, USA
Distance from station: SSW 70mi, 113km
Updated: 07/08/2020 3:58am
Clear
Clear
 Wind from calm
Wind: Calm
Temperature: 59°F , 15°C
Dew Point: 57°F , 14°C
Humidity: 94%
Barometer: 29.97 inHg , 1014.9 hPa
Clouds: Clear
Visibility: 9 miles , 14 km
2020/07/08 07:58 KGOV 080758Z AUTO 00000KT 9SM CLR 15/14 A2997 RMK AO2 SLP149 T01460143 403210143 $